Naples, Maine
Current Conditions -  °F | °C
As of 1:54 PM on Saturday 20 Dec 2014 (Local Time) from KIZG Reporting Station
Clear Clear  
Wind Chill: 32°   Ceiling: Unl
Heat Index: 32°   Visibility: 10mi
Dew Point: 16°   Wind: 0mph
Humidity: 52%   Direction: NA
Pressure: 30.27"   Gusts: NA
Location:  43.97°N, 70.61°W
Report Text: KIZG 201854Z AUTO 00000KT 10SM CLR 00/M09 A3027 RMK AO2 SLP258 T00001089
Loading
Personal Weather Stations






























Interactive Weather Map New forecast layout! Learn more

10-Day Weather Forecast

Advertisements
Track Severe Weather on mobile